createdAt,value
2019-02-07T00:01:01.528Z,98951.31
2019-02-07T00:03:08.429Z,98946.63
2019-02-07T00:05:12.607Z,98944.88
2019-02-07T00:07:18.237Z,98936.18
2019-02-07T00:09:22.235Z,98932.98
2019-02-07T00:11:31.697Z,98927.95
2019-02-07T00:13:35.716Z,98924.29
2019-02-07T00:15:39.766Z,98910.26
2019-02-07T00:17:43.755Z,98908.73
2019-02-07T00:19:47.670Z,98901.89
2019-02-07T00:21:52.557Z,98900.05
2019-02-07T00:24:02.823Z,98898.18
2019-02-07T00:26:09.713Z,98886.84
2019-02-07T00:28:18.527Z,98887.99
2019-02-07T00:30:29.543Z,98887.15
2019-02-07T00:32:34.062Z,98879.33
2019-02-07T00:34:38.433Z,98878.31
2019-02-07T00:36:42.444Z,98877.16
2019-02-07T00:38:47.064Z,98874.66
2019-02-07T00:41:01.603Z,98868.97
2019-02-07T00:43:05.638Z,98869.95
2019-02-07T00:45:11.775Z,98872.95
2019-02-07T00:47:15.762Z,98870.28
2019-02-07T00:49:19.985Z,98869.27
2019-02-07T00:51:23.982Z,98868.78
2019-02-07T00:53:27.941Z,98860.98
2019-02-07T00:55:36.596Z,98851.30
2019-02-07T00:57:41.587Z,98844.34
2019-02-07T00:59:45.596Z,98845.67
2019-02-07T01:01:50.036Z,98837.36
2019-02-07T01:03:53.994Z,98834.16
2019-02-07T01:05:58.002Z,98828.65
2019-02-07T01:08:03.467Z,98824.12
2019-02-07T01:10:09.200Z,98809.28
2019-02-07T01:12:13.743Z,98809.76
2019-02-07T01:14:17.791Z,98809.25
2019-02-07T01:16:21.869Z,98807.02
2019-02-07T01:18:25.892Z,98821.48
2019-02-07T01:20:31.971Z,98815.30
2019-02-07T01:22:35.931Z,98812.80
2019-02-07T01:24:40.066Z,98812.61
2019-02-07T01:26:44.504Z,98809.41
2019-02-07T01:28:48.496Z,98807.59
2019-02-07T01:30:52.597Z,98813.70
2019-02-07T01:33:00.864Z,98806.86
2019-02-07T01:35:05.084Z,98802.86
2019-02-07T01:37:09.024Z,98794.69
2019-02-07T01:39:12.971Z,98786.03
2019-02-07T01:41:16.942Z,98785.84
2019-02-07T01:43:21.012Z,98770.53
2019-02-07T01:45:25.162Z,98769.52
2019-02-07T01:47:30.282Z,98757.72
2019-02-07T01:49:35.324Z,98759.05
2019-02-07T01:51:39.209Z,98757.36
2019-02-07T01:53:46.931Z,98755.03
2019-02-07T01:55:51.195Z,98758.02
2019-02-07T01:57:56.128Z,98748.03
2019-02-07T02:00:00.221Z,98748.52
2019-02-07T02:02:04.115Z,98748.19
2019-02-07T02:04:08.210Z,98747.34
2019-02-07T02:06:12.853Z,98746.16
2019-02-07T02:08:16.867Z,98749.47
2019-02-07T02:10:25.940Z,98748.96
2019-02-07T02:12:29.887Z,98745.45
2019-02-07T02:14:33.827Z,98748.25
2019-02-07T02:16:37.839Z,98747.28
2019-02-07T02:18:41.813Z,98738.32
2019-02-07T02:20:45.719Z,98739.67
2019-02-07T02:22:51.809Z,98727.89
2019-02-07T02:24:55.836Z,98730.05
2019-02-07T02:26:59.897Z,98718.58
2019-02-07T02:29:04.802Z,98706.11
2019-02-07T02:31:08.766Z,98706.11
2019-02-07T02:33:12.850Z,98709.61
2019-02-07T02:35:16.648Z,98706.43
2019-02-07T02:37:20.845Z,98701.81
2019-02-07T02:39:24.806Z,98695.67
2019-02-07T02:41:28.895Z,98688.83
2019-02-07T02:43:32.868Z,98687.02
2019-02-07T02:45:37.969Z,98695.67
2019-02-07T02:47:42.074Z,98689.37
2019-02-07T02:49:49.221Z,98686.89
2019-02-07T02:51:54.318Z,98697.55
2019-02-07T02:54:00.748Z,98689.61
2019-02-07T02:56:06.224Z,98690.30
2019-02-07T02:58:11.613Z,98689.69
2019-02-07T03:00:18.785Z,98685.20
2019-02-07T03:02:37.072Z,98682.72
2019-02-07T03:04:54.256Z,98683.22
2019-02-07T03:07:35.067Z,98674.92
2019-02-07T03:09:56.377Z,98666.09
2019-02-07T03:12:20.279Z,98658.95
2019-02-07T03:14:41.951Z,98657.63
2019-02-07T03:17:03.367Z,98649.95
2019-02-07T03:19:18.295Z,98640.80
2019-02-07T03:21:39.970Z,98640.48
2019-02-07T03:24:18.116Z,98642.80
2019-02-07T03:26:33.070Z,98630.50
2019-02-07T03:28:50.229Z,98636.45
2019-02-07T03:31:11.530Z,98639.45
2019-02-07T03:33:26.366Z,98646.78
2019-02-07T03:35:52.147Z,98633.97
2019-02-07T03:38:13.767Z,98639.16
2019-02-07T03:40:45.834Z,98648.97
2019-02-07T03:43:07.588Z,98650.66
2019-02-07T03:45:36.093Z,98638.23
2019-02-07T03:47:57.754Z,98629.22
2019-02-07T03:50:25.783Z,98620.92
2019-02-07T03:52:51.943Z,98610.41
2019-02-07T03:55:15.559Z,98594.78
2019-02-07T03:57:47.657Z,98600.59
2019-02-07T04:00:16.026Z,98589.24
2019-02-07T04:02:48.043Z,98599.08
2019-02-07T04:05:14.124Z,98611.87
2019-02-07T04:07:27.629Z,98619.37
2019-02-07T04:09:59.221Z,98610.36
2019-02-07T04:12:22.463Z,98608.72
2019-02-07T04:14:44.115Z,98603.25
2019-02-07T04:17:06.254Z,98602.23
2019-02-07T04:19:26.705Z,98601.26
2019-02-07T04:21:58.451Z,98601.09
2019-02-07T04:24:39.517Z,98602.45
2019-02-07T04:27:05.505Z,98610.45
2019-02-07T04:29:37.386Z,98615.42
2019-02-07T04:32:00.409Z,98617.62
2019-02-07T04:34:37.539Z,98612.63
2019-02-07T04:37:09.688Z,98603.82
2019-02-07T04:39:25.722Z,98608.98
2019-02-07T04:41:47.354Z,98599.52
2019-02-07T04:44:19.159Z,98599.34
2019-02-07T04:46:40.603Z,98596.01
2019-02-07T04:48:57.676Z,98589.03
2019-02-07T04:51:19.280Z,98583.52
2019-02-07T04:53:35.370Z,98580.86
2019-02-07T04:56:00.688Z,98572.20
2019-02-07T04:58:22.662Z,98573.53
2019-02-07T05:00:58.495Z,98567.54
2019-02-07T05:03:20.298Z,98559.23
2019-02-07T05:05:47.027Z,98565.05
2019-02-07T05:08:18.880Z,98567.72
2019-02-07T05:10:40.511Z,98569.89
2019-02-07T05:13:02.086Z,98571.39
2019-02-07T05:15:30.676Z,98563.89
2019-02-07T05:18:00.089Z,98559.23
2019-02-07T05:20:26.145Z,98563.72
2019-02-07T05:22:41.640Z,98566.41
2019-02-07T05:25:12.129Z,98561.75
2019-02-07T05:27:37.684Z,98551.90
2019-02-07T05:29:59.049Z,98544.75
2019-02-07T05:32:13.096Z,98532.78
2019-02-07T05:34:37.118Z,98524.44
2019-02-07T05:36:53.116Z,98512.61
2019-02-07T05:39:21.922Z,98509.80
2019-02-07T05:41:40.677Z,98508.64
2019-02-07T05:43:54.208Z,98525.44
2019-02-07T05:46:08.952Z,98520.95
2019-02-07T05:48:45.151Z,98531.78
2019-02-07T05:51:09.723Z,98534.77
2019-02-07T05:53:31.134Z,98516.79
2019-02-07T05:56:12.476Z,98504.45
2019-02-07T05:58:24.605Z,98508.45
2019-02-07T06:00:47.665Z,98504.98
2019-02-07T06:03:16.993Z,98522.12
2019-02-07T06:05:38.625Z,98512.80
2019-02-07T06:08:00.729Z,98513.63
2019-02-07T06:10:43.931Z,98507.97
2019-02-07T06:13:24.948Z,98500.31
2019-02-07T06:15:47.697Z,98495.93
2019-02-07T06:18:22.691Z,98511.08
2019-02-07T06:20:48.487Z,98517.59
2019-02-07T06:23:14.090Z,98520.45
2019-02-07T06:25:35.660Z,98530.09
2019-02-07T06:27:51.041Z,98523.30
2019-02-07T06:30:08.785Z,98517.64
2019-02-07T06:32:21.521Z,98516.97
2019-02-07T06:34:42.740Z,98521.31
2019-02-07T06:37:04.570Z,98523.78
2019-02-07T06:39:28.739Z,98532.14
2019-02-07T06:42:03.701Z,98537.30
2019-02-07T06:44:28.989Z,98552.80
2019-02-07T06:46:52.603Z,98550.45
2019-02-07T06:49:15.387Z,98539.30
2019-02-07T06:51:39.687Z,98537.47
2019-02-07T06:54:01.515Z,98534.98
2019-02-07T06:56:23.153Z,98533.64
2019-02-07T06:58:44.104Z,98535.96
2019-02-07T07:01:13.301Z,98549.11
2019-02-07T07:03:28.076Z,98556.78
2019-02-07T07:05:51.864Z,98558.14
2019-02-07T07:08:17.837Z,98557.47
2019-02-07T07:10:43.807Z,98559.11
2019-02-07T07:13:15.622Z,98543.79
2019-02-07T07:15:47.513Z,98518.46
2019-02-07T07:18:16.395Z,98523.47
2019-02-07T07:20:59.481Z,98546.13
2019-02-07T07:23:16.447Z,98545.80
2019-02-07T07:25:38.030Z,98534.11
2019-02-07T07:28:03.994Z,98528.14
2019-02-07T07:30:33.577Z,98528.63
2019-02-07T07:33:11.231Z,98536.13
2019-02-07T07:35:40.609Z,98528.80
2019-02-07T07:38:02.635Z,98524.63
2019-02-07T07:40:28.685Z,98511.14
2019-02-07T07:42:50.361Z,98509.13
2019-02-07T07:45:15.727Z,98517.13
2019-02-07T07:47:36.047Z,98508.29
2019-02-07T07:49:53.593Z,98495.14
2019-02-07T07:52:21.452Z,98491.45
2019-02-07T07:55:00.421Z,98493.63
2019-02-07T07:57:26.155Z,98497.14
2019-02-07T07:59:49.166Z,98518.81
2019-02-07T08:02:12.234Z,98525.95
2019-02-07T08:04:35.248Z,98518.81
2019-02-07T08:07:02.854Z,98507.62
2019-02-07T08:09:26.567Z,98507.13
2019-02-07T08:11:49.446Z,98507.63
2019-02-07T08:14:10.800Z,98515.47
2019-02-07T08:16:35.971Z,98516.96
2019-02-07T08:19:04.964Z,98495.28
2019-02-07T08:21:33.953Z,98505.11
2019-02-07T08:23:56.406Z,98500.44
2019-02-07T08:26:17.750Z,98516.27
2019-02-07T08:28:42.019Z,98494.28
2019-02-07T08:30:55.290Z,98498.94
2019-02-07T08:33:19.139Z,98493.77
2019-02-07T08:35:41.992Z,98497.27
2019-02-07T08:38:11.378Z,98493.92
2019-02-07T08:40:32.965Z,98498.45
2019-02-07T08:42:58.798Z,98499.08
2019-02-07T08:45:27.445Z,98500.24
2019-02-07T08:47:58.386Z,98494.39
2019-02-07T08:50:16.297Z,98489.06
2019-02-07T08:52:39.310Z,98483.70
2019-02-07T08:55:02.460Z,98468.03
2019-02-07T08:57:26.695Z,98466.17
2019-02-07T08:59:54.187Z,98468.31
2019-02-07T09:02:17.205Z,98466.98
2019-02-07T09:04:34.760Z,98464.66
2019-02-07T09:07:12.871Z,98459.47
2019-02-07T09:09:34.949Z,98463.61
2019-02-07T09:12:12.452Z,98458.73
2019-02-07T09:14:33.274Z,98458.55
2019-02-07T09:16:55.217Z,98467.89
2019-02-07T09:19:20.558Z,98459.72
2019-02-07T09:21:35.616Z,98457.86
2019-02-07T09:24:10.784Z,98459.53
2019-02-07T09:26:39.852Z,98468.88
2019-02-07T09:28:55.004Z,98450.04
2019-02-07T09:31:17.215Z,98452.21
2019-02-07T09:33:38.960Z,98447.21
2019-02-07T09:36:05.352Z,98452.55
2019-02-07T09:38:40.777Z,98462.02
2019-02-07T09:41:03.864Z,98446.80
2019-02-07T09:43:25.584Z,98449.40
2019-02-07T09:45:49.446Z,98451.04
2019-02-07T09:48:21.325Z,98458.86
2019-02-07T09:50:34.686Z,98452.67
2019-02-07T09:52:50.265Z,98447.44
2019-02-07T09:55:27.731Z,98457.44
2019-02-07T09:57:42.175Z,98462.73
2019-02-07T10:00:12.577Z,98447.44
2019-02-07T10:02:22.404Z,98443.72
2019-02-07T10:04:43.653Z,98437.63
2019-02-07T10:07:01.753Z,98443.61
2019-02-07T10:09:36.938Z,98444.09
2019-02-07T10:11:58.785Z,98448.70
2019-02-07T10:14:34.217Z,98445.96
2019-02-07T10:17:06.108Z,98445.61
2019-02-07T10:19:34.861Z,98446.05
2019-02-07T10:22:03.807Z,98440.69
2019-02-07T10:24:25.474Z,98437.23
2019-02-07T10:26:47.009Z,98436.25
2019-02-07T10:29:08.645Z,98423.37
2019-02-07T10:31:30.721Z,98418.02
2019-02-07T10:33:52.202Z,98410.00
2019-02-07T10:36:24.129Z,98416.34
2019-02-07T10:38:45.619Z,98407.47
2019-02-07T10:41:11.543Z,98410.92
2019-02-07T10:43:44.902Z,98406.34
2019-02-07T10:46:12.373Z,98409.09
2019-02-07T10:48:44.602Z,98404.64
2019-02-07T10:51:07.037Z,98402.80
2019-02-07T10:53:32.566Z,98411.04
2019-02-07T10:55:56.587Z,98402.64
2019-02-07T10:58:22.312Z,98394.24
2019-02-07T11:00:45.378Z,98383.70
2019-02-07T11:03:26.489Z,98380.39
2019-02-07T11:05:39.474Z,98381.92
2019-02-07T11:08:02.157Z,98369.04
2019-02-07T11:10:27.779Z,98360.67
2019-02-07T11:12:49.640Z,98370.05
2019-02-07T11:15:21.502Z,98356.42
2019-02-07T11:17:53.820Z,98357.16
2019-02-07T11:20:22.927Z,98353.84
2019-02-07T11:22:36.361Z,98355.52
2019-02-07T11:24:57.807Z,98342.76
2019-02-07T11:27:26.737Z,98333.65
2019-02-07T11:29:48.998Z,98334.11
2019-02-07T11:32:18.238Z,98330.93
2019-02-07T11:34:41.116Z,98340.81
2019-02-07T11:37:03.182Z,98338.50
2019-02-07T11:39:40.699Z,98339.52
2019-02-07T11:42:09.581Z,98341.38
2019-02-07T11:44:20.695Z,98346.03
2019-02-07T11:46:43.823Z,98343.16
2019-02-07T11:49:09.838Z,98341.65
2019-02-07T11:51:32.161Z,98342.28
2019-02-07T11:54:07.556Z,98338.06
2019-02-07T11:56:37.878Z,98335.01
2019-02-07T11:59:18.803Z,98335.01
2019-02-07T12:01:35.051Z,98333.74
2019-02-07T12:04:05.150Z,98325.24
2019-02-07T12:06:26.568Z,98328.62
2019-02-07T12:08:42.815Z,98314.90
2019-02-07T12:11:04.467Z,98306.36
2019-02-07T12:13:18.286Z,98308.84
2019-02-07T12:15:33.738Z,98305.78
2019-02-07T12:18:10.173Z,98301.39
2019-02-07T12:20:51.317Z,98297.12
2019-02-07T12:23:12.568Z,98298.52
2019-02-07T12:25:28.346Z,98299.61
2019-02-07T12:27:51.334Z,98301.58
2019-02-07T12:30:17.377Z,98297.31
2019-02-07T12:32:38.710Z,98307.14
2019-02-07T12:34:51.740Z,98297.94
2019-02-07T12:37:23.970Z,98296.09
2019-02-07T12:39:49.967Z,98287.34
2019-02-07T12:42:05.513Z,98289.77
2019-02-07T12:44:29.725Z,98281.68
2019-02-07T12:47:11.186Z,98278.41
2019-02-07T12:49:33.503Z,98271.63
2019-02-07T12:52:05.262Z,98276.81
2019-02-07T12:54:40.210Z,98274.77
2019-02-07T12:57:00.964Z,98267.97
2019-02-07T12:59:33.038Z,98271.94
2019-02-07T13:01:59.036Z,98264.70
2019-02-07T13:04:17.747Z,98265.23
2019-02-07T13:06:38.564Z,98289.67
2019-02-07T13:08:56.243Z,98284.42
2019-02-07T13:11:25.248Z,98282.08
2019-02-07T13:13:48.832Z,98288.39
2019-02-07T13:16:22.090Z,98279.13
2019-02-07T13:18:42.275Z,98267.69
2019-02-07T13:21:03.627Z,98264.80
2019-02-07T13:23:26.592Z,98270.67
2019-02-07T13:25:48.512Z,98263.97
2019-02-07T13:28:10.042Z,98267.48
2019-02-07T13:30:40.041Z,98263.34
2019-02-07T13:32:50.769Z,98269.75
2019-02-07T13:35:19.966Z,98264.55
2019-02-07T13:37:45.693Z,98267.06
2019-02-07T13:40:07.372Z,98273.05
2019-02-07T13:42:19.312Z,98268.70
2019-02-07T13:44:40.852Z,98269.33
2019-02-07T13:47:12.649Z,98269.66
2019-02-07T13:49:51.679Z,98273.30
2019-02-07T13:52:08.070Z,98262.56
2019-02-07T13:54:35.960Z,98269.06
2019-02-07T13:57:07.778Z,98272.58
2019-02-07T13:59:46.072Z,98267.00
2019-02-07T14:02:13.636Z,98272.81
2019-02-07T14:04:43.688Z,98279.52
2019-02-07T14:07:05.811Z,98281.58
2019-02-07T14:09:27.403Z,98282.41
2019-02-07T14:11:57.779Z,98276.84
2019-02-07T14:14:12.223Z,98276.13
2019-02-07T14:16:35.120Z,98284.89
2019-02-07T14:19:07.456Z,98286.35
2019-02-07T14:21:20.745Z,98282.83
2019-02-07T14:23:49.331Z,98280.86
2019-02-07T14:26:07.967Z,98280.03
2019-02-07T14:28:38.702Z,98281.46
2019-02-07T14:31:06.281Z,98285.48
2019-02-07T14:33:28.180Z,98284.56
2019-02-07T14:35:42.269Z,98279.85
2019-02-07T14:38:03.969Z,98278.63
2019-02-07T14:40:29.372Z,98280.77
2019-02-07T14:42:58.476Z,98278.21
2019-02-07T14:45:20.462Z,98275.53
2019-02-07T14:47:26.717Z,98273.30
2019-02-07T14:49:33.036Z,98280.13
2019-02-07T14:51:36.993Z,98271.23
2019-02-07T14:53:42.219Z,98273.08
2019-02-07T14:55:46.295Z,98272.28
2019-02-07T14:57:50.592Z,98276.30
2019-02-07T14:59:59.421Z,98280.13
2019-02-07T15:02:03.547Z,98277.56
2019-02-07T15:04:10.290Z,98269.83
2019-02-07T15:06:14.277Z,98271.80
2019-02-07T15:08:18.313Z,98271.80
2019-02-07T15:10:22.256Z,98266.73
2019-02-07T15:12:26.359Z,98262.02
2019-02-07T15:14:30.644Z,98268.02
2019-02-07T15:16:34.758Z,98270.99
2019-02-07T15:18:38.862Z,98267.30
2019-02-07T15:20:43.009Z,98271.11
2019-02-07T15:22:48.081Z,98258.02
2019-02-07T15:24:52.199Z,98258.64
2019-02-07T15:26:56.010Z,98261.66
2019-02-07T15:29:00.008Z,98269.31
2019-02-07T15:31:05.670Z,98264.75
2019-02-07T15:33:10.083Z,98272.11
2019-02-07T15:35:17.949Z,98275.42
2019-02-07T15:37:23.992Z,98273.98
2019-02-07T15:39:28.107Z,98266.88
2019-02-07T15:41:32.082Z,98265.66
2019-02-07T15:43:36.076Z,98261.45
2019-02-07T15:45:40.828Z,98260.10
2019-02-07T15:47:44.879Z,98263.70
2019-02-07T15:49:49.004Z,98266.83
2019-02-07T15:51:52.904Z,98264.14
2019-02-07T15:53:57.012Z,98269.63
2019-02-07T15:56:01.500Z,98271.92
2019-02-07T15:58:05.613Z,98270.06
2019-02-07T16:00:29.763Z,98272.54
2019-02-07T16:02:40.401Z,98271.82
2019-02-07T16:04:46.171Z,98276.17
2019-02-07T16:06:50.171Z,98278.14
2019-02-07T16:08:54.279Z,98277.42
2019-02-07T16:10:59.388Z,98283.41
2019-02-07T16:13:03.463Z,98290.78
2019-02-07T16:15:11.020Z,98286.31
2019-02-07T16:17:15.437Z,98289.95
2019-02-07T16:19:19.607Z,98283.28
2019-02-07T16:21:23.627Z,98290.62
2019-02-07T16:23:31.003Z,98291.13
2019-02-07T16:25:35.022Z,98298.56
2019-02-07T16:27:39.049Z,98298.56
2019-02-07T16:29:43.143Z,98298.56
2019-02-07T16:31:47.160Z,98296.06
2019-02-07T16:33:51.356Z,98299.07
2019-02-07T16:35:55.497Z,98291.84
2019-02-07T16:37:59.684Z,98295.16
2019-02-07T16:40:05.904Z,98289.56
2019-02-07T16:42:10.038Z,98292.25
2019-02-07T16:44:14.147Z,98295.78
2019-02-07T16:46:18.150Z,98287.20
2019-02-07T16:48:22.196Z,98289.39
2019-02-07T16:50:26.315Z,98285.65
2019-02-07T16:52:30.572Z,98294.03
2019-02-07T16:54:34.570Z,98289.50
2019-02-07T16:56:39.601Z,98292.47
2019-02-07T16:58:43.787Z,98296.83
2019-02-07T17:00:48.808Z,98297.34
2019-02-07T17:02:53.080Z,98300.03
2019-02-07T17:04:57.791Z,98303.55
2019-02-07T17:07:02.111Z,98302.20
2019-02-07T17:09:16.136Z,98303.34
2019-02-07T17:11:20.215Z,98303.98
2019-02-07T17:13:24.251Z,98297.56
2019-02-07T17:15:28.404Z,98301.92
2019-02-07T17:17:32.653Z,98306.57
2019-02-07T17:19:36.710Z,98306.89
2019-02-07T17:21:40.702Z,98311.55
2019-02-07T17:23:45.280Z,98313.72
2019-02-07T17:25:49.552Z,98314.53
2019-02-07T17:27:56.416Z,98312.49
2019-02-07T17:30:00.414Z,98322.81
2019-02-07T17:32:04.894Z,98316.09
2019-02-07T17:34:09.127Z,98318.09
2019-02-07T17:36:13.228Z,98314.34
2019-02-07T17:38:17.495Z,98316.64
2019-02-07T17:40:21.919Z,98317.88
2019-02-07T17:42:27.111Z,98319.04
2019-02-07T17:44:31.625Z,98322.96
2019-02-07T17:46:35.820Z,98326.09
2019-02-07T17:48:40.043Z,98326.48
2019-02-07T17:50:44.409Z,98325.25
2019-02-07T17:52:50.427Z,98330.44
2019-02-07T17:54:54.643Z,98327.03
2019-02-07T17:56:58.801Z,98340.25
2019-02-07T17:59:03.171Z,98332.63
2019-02-07T18:01:09.733Z,98341.31
2019-02-07T18:03:13.877Z,98336.36
2019-02-07T18:05:17.974Z,98340.69
2019-02-07T18:07:22.217Z,98337.20
2019-02-07T18:09:26.586Z,98337.70
2019-02-07T18:11:31.453Z,98334.69
2019-02-07T18:13:35.600Z,98336.03
2019-02-07T18:15:39.881Z,98342.76
2019-02-07T18:17:44.143Z,98346.50
2019-02-07T18:19:48.505Z,98343.16
2019-02-07T18:21:53.879Z,98343.81
2019-02-07T18:23:58.165Z,98349.19
2019-02-07T18:26:02.228Z,98353.52
2019-02-07T18:28:06.326Z,98359.52
2019-02-07T18:30:17.876Z,98360.16
2019-02-07T18:32:21.986Z,98356.93
2019-02-07T18:34:26.393Z,98356.75
2019-02-07T18:36:33.441Z,98362.42
2019-02-07T18:38:37.500Z,98368.63
2019-02-07T18:40:41.584Z,98363.07
2019-02-07T18:42:45.629Z,98380.66
2019-02-07T18:44:49.803Z,98375.39
2019-02-07T18:46:53.921Z,98377.64
2019-02-07T18:48:59.100Z,98376.73
2019-02-07T18:51:03.237Z,98373.86
2019-02-07T18:53:08.409Z,98380.47
2019-02-07T18:55:12.871Z,98384.39
2019-02-07T18:57:16.972Z,98386.50
2019-02-07T18:59:21.280Z,98396.82
2019-02-07T19:01:25.394Z,98402.64
2019-02-07T19:03:29.527Z,98414.02
2019-02-07T19:05:36.997Z,98413.61
2019-02-07T19:07:41.321Z,98412.59
2019-02-07T19:09:46.373Z,98422.63
2019-02-07T19:11:54.120Z,98422.92
2019-02-07T19:14:00.882Z,98423.14
2019-02-07T19:16:14.907Z,98421.80
2019-02-07T19:18:19.570Z,98417.14
2019-02-07T19:20:24.060Z,98420.34
2019-02-07T19:22:28.690Z,98422.52
2019-02-07T19:24:33.115Z,98422.02
2019-02-07T19:26:38.843Z,98424.38
2019-02-07T19:28:43.619Z,98424.16
2019-02-07T19:30:47.813Z,98430.89
2019-02-07T19:32:51.952Z,98430.70
2019-02-07T19:35:06.367Z,98430.99
2019-02-07T19:37:10.513Z,98437.83
2019-02-07T19:39:14.678Z,98432.26
2019-02-07T19:41:18.740Z,98442.70
2019-02-07T19:43:22.854Z,98438.48
2019-02-07T19:45:26.850Z,98443.64
2019-02-07T19:47:30.915Z,98444.27
2019-02-07T19:49:35.387Z,98447.47
2019-02-07T19:51:39.545Z,98449.86
2019-02-07T19:53:43.593Z,98441.28
2019-02-07T19:55:47.824Z,98439.09
2019-02-07T19:57:52.768Z,98428.41
2019-02-07T19:59:57.053Z,98436.38
2019-02-07T20:02:01.274Z,98434.92
2019-02-07T20:04:05.390Z,98438.05
2019-02-07T20:06:09.726Z,98436.59
2019-02-07T20:08:14.053Z,98439.69
2019-02-07T20:10:19.780Z,98442.27
2019-02-07T20:12:23.840Z,98441.66
2019-02-07T20:14:27.859Z,98447.55
2019-02-07T20:16:31.787Z,98452.09
2019-02-07T20:18:36.028Z,98459.33
2019-02-07T20:20:40.291Z,98459.33
2019-02-07T20:22:44.475Z,98465.77
2019-02-07T20:24:48.535Z,98471.14
2019-02-07T20:26:55.549Z,98473.19
2019-02-07T20:28:59.562Z,98471.84
2019-02-07T20:31:04.138Z,98474.86
2019-02-07T20:33:12.454Z,98483.55
2019-02-07T20:35:16.851Z,98481.69
2019-02-07T20:37:21.640Z,98476.09
2019-02-07T20:39:27.100Z,98475.59
2019-02-07T20:41:32.015Z,98474.13
2019-02-07T20:43:36.661Z,98478.56
2019-02-07T20:45:40.712Z,98476.92
2019-02-07T20:47:45.045Z,98472.89
2019-02-07T20:49:49.208Z,98478.45
2019-02-07T20:51:53.457Z,98479.39
2019-02-07T20:53:57.634Z,98487.24
2019-02-07T20:56:01.752Z,98487.31
2019-02-07T20:58:05.865Z,98482.33
2019-02-07T21:00:17.338Z,98487.58
2019-02-07T21:02:21.675Z,98484.34
2019-02-07T21:04:26.135Z,98488.08
2019-02-07T21:06:30.345Z,98486.11
2019-02-07T21:08:34.513Z,98486.62
2019-02-07T21:10:38.784Z,98484.05
2019-02-07T21:12:43.157Z,98489.83
2019-02-07T21:14:47.498Z,98496.16
2019-02-07T21:16:51.902Z,98498.45
2019-02-07T21:18:56.351Z,98500.42
2019-02-07T21:21:18.876Z,98500.86
2019-02-07T21:23:29.921Z,98510.39
2019-02-07T21:25:43.386Z,98505.84
2019-02-07T21:27:48.047Z,98513.19
2019-02-07T21:29:52.323Z,98518.06
2019-02-07T21:31:56.948Z,98518.36
2019-02-07T21:34:01.227Z,98525.41
2019-02-07T21:36:06.301Z,98522.51
2019-02-07T21:38:10.759Z,98523.34
2019-02-07T21:40:21.227Z,98524.51
2019-02-07T21:42:25.565Z,98526.48
2019-02-07T21:44:29.790Z,98532.69
2019-02-07T21:46:33.912Z,98529.78
2019-02-07T21:48:38.383Z,98534.66
2019-02-07T21:50:45.273Z,98530.30
2019-02-07T21:52:51.676Z,98532.88
2019-02-07T21:54:55.769Z,98532.88
2019-02-07T21:56:59.874Z,98534.44
2019-02-07T21:59:04.076Z,98531.41
2019-02-07T22:01:08.176Z,98528.28
2019-02-07T22:03:13.642Z,98536.06
2019-02-07T22:05:17.715Z,98533.77
2019-02-07T22:07:21.778Z,98529.28
2019-02-07T22:09:26.044Z,98539.42
2019-02-07T22:11:30.231Z,98541.48
2019-02-07T22:13:34.722Z,98537.13
2019-02-07T22:15:38.674Z,98535.16
2019-02-07T22:17:42.737Z,98529.99
2019-02-07T22:19:46.823Z,98533.70
2019-02-07T22:21:51.046Z,98535.04
2019-02-07T22:23:55.446Z,98542.27
2019-02-07T22:25:59.458Z,98546.01
2019-02-07T22:28:06.059Z,98552.22
2019-02-07T22:30:13.587Z,98553.87
2019-02-07T22:32:18.071Z,98560.92
2019-02-07T22:34:22.150Z,98553.87
2019-02-07T22:36:27.256Z,98551.06
2019-02-07T22:38:31.844Z,98564.33
2019-02-07T22:40:35.831Z,98559.34
2019-02-07T22:42:47.542Z,98563.05
2019-02-07T22:44:48.570Z,98561.91
2019-02-07T22:46:52.697Z,98562.92
2019-02-07T22:48:57.085Z,98564.27
2019-02-07T22:51:01.221Z,98564.78
2019-02-07T22:53:05.552Z,98566.13
2019-02-07T22:55:09.746Z,98575.03
2019-02-07T22:57:14.852Z,98574.41
2019-02-07T22:59:18.896Z,98579.27
2019-02-07T23:01:37.326Z,98575.95
2019-02-07T23:03:43.609Z,98574.16
2019-02-07T23:05:48.907Z,98584.08
2019-02-07T23:07:53.292Z,98586.47
2019-02-07T23:09:57.633Z,98583.13
2019-02-07T23:12:01.809Z,98591.73
2019-02-07T23:14:08.053Z,98585.19
2019-02-07T23:16:12.048Z,98587.63
2019-02-07T23:18:19.357Z,98593.73
2019-02-07T23:20:23.415Z,98594.74
2019-02-07T23:22:29.055Z,98589.58
2019-02-07T23:24:33.135Z,98592.47
2019-02-07T23:26:37.451Z,98595.96
2019-02-07T23:28:42.018Z,98589.78
2019-02-07T23:30:48.971Z,98589.78
2019-02-07T23:32:52.946Z,98595.45
2019-02-07T23:34:57.601Z,98587.90
2019-02-07T23:37:01.754Z,98593.40
2019-02-07T23:39:11.805Z,98588.35
2019-02-07T23:41:16.258Z,98586.50
2019-02-07T23:43:20.228Z,98586.91
2019-02-07T23:45:24.629Z,98585.39
2019-02-07T23:47:28.662Z,98582.32
2019-02-07T23:49:33.169Z,98589.34
2019-02-07T23:51:37.133Z,98588.63
2019-02-07T23:53:41.165Z,98584.70
2019-02-07T23:55:45.250Z,98585.16
2019-02-07T23:57:49.348Z,98591.37
2019-02-07T23:59:53.543Z,98595.70
